sensor_id;sensor_type;location;lat;lon;timestamp;P1;durP1;ratioP1;P2;durP2;ratioP2
32705;SDS011;19094;50.972;3.538;2022-07-06T00:01:36;7.20;;;3.83;;
32705;SDS011;19094;50.972;3.538;2022-07-06T00:04:03;8.35;;;4.20;;
32705;SDS011;19094;50.972;3.538;2022-07-06T00:06:29;12.70;;;4.68;;
32705;SDS011;19094;50.972;3.538;2022-07-06T00:08:55;9.52;;;4.55;;
32705;SDS011;19094;50.972;3.538;2022-07-06T00:11:20;9.38;;;4.68;;
32705;SDS011;19094;50.972;3.538;2022-07-06T00:13:46;9.15;;;5.20;;
32705;SDS011;19094;50.972;3.538;2022-07-06T00:16:12;8.98;;;4.63;;
32705;SDS011;19094;50.972;3.538;2022-07-06T00:18:38;9.25;;;5.03;;
32705;SDS011;19094;50.972;3.538;2022-07-06T00:21:03;16.40;;;5.50;;
32705;SDS011;19094;50.972;3.538;2022-07-06T00:23:29;9.00;;;4.60;;
32705;SDS011;19094;50.972;3.538;2022-07-06T00:25:55;8.40;;;5.35;;
32705;SDS011;19094;50.972;3.538;2022-07-06T00:28:20;7.85;;;4.82;;
32705;SDS011;19094;50.972;3.538;2022-07-06T00:30:46;9.85;;;4.80;;
32705;SDS011;19094;50.972;3.538;2022-07-06T00:33:12;9.52;;;5.32;;
32705;SDS011;19094;50.972;3.538;2022-07-06T00:35:38;13.50;;;4.82;;
32705;SDS011;19094;50.972;3.538;2022-07-06T00:38:03;12.40;;;5.25;;
32705;SDS011;19094;50.972;3.538;2022-07-06T00:40:29;13.45;;;5.45;;
32705;SDS011;19094;50.972;3.538;2022-07-06T00:42:55;13.48;;;5.45;;
32705;SDS011;19094;50.972;3.538;2022-07-06T00:45:21;8.57;;;5.75;;
32705;SDS011;19094;50.972;3.538;2022-07-06T00:47:47;9.48;;;5.57;;
32705;SDS011;19094;50.972;3.538;2022-07-06T00:50:13;12.27;;;5.22;;
32705;SDS011;19094;50.972;3.538;2022-07-06T00:52:42;12.73;;;5.95;;
32705;SDS011;19094;50.972;3.538;2022-07-06T00:55:10;10.32;;;5.70;;
32705;SDS011;19094;50.972;3.538;2022-07-06T00:57:37;11.88;;;6.15;;
32705;SDS011;19094;50.972;3.538;2022-07-06T01:00:04;9.15;;;6.05;;
32705;SDS011;19094;50.972;3.538;2022-07-06T01:02:33;17.70;;;5.95;;
32705;SDS011;19094;50.972;3.538;2022-07-06T01:04:59;11.50;;;5.80;;
32705;SDS011;19094;50.972;3.538;2022-07-06T01:07:26;12.55;;;6.25;;
32705;SDS011;19094;50.972;3.538;2022-07-06T01:09:54;11.10;;;5.60;;
32705;SDS011;19094;50.972;3.538;2022-07-06T01:12:20;8.57;;;5.40;;
32705;SDS011;19094;50.972;3.538;2022-07-06T01:14:46;12.15;;;5.63;;
32705;SDS011;19094;50.972;3.538;2022-07-06T01:17:13;14.95;;;5.93;;
32705;SDS011;19094;50.972;3.538;2022-07-06T01:19:40;15.77;;;5.88;;
32705;SDS011;19094;50.972;3.538;2022-07-06T01:22:05;12.80;;;6.95;;
32705;SDS011;19094;50.972;3.538;2022-07-06T01:24:34;10.60;;;5.88;;
32705;SDS011;19094;50.972;3.538;2022-07-06T01:27:01;8.00;;;5.63;;
32705;SDS011;19094;50.972;3.538;2022-07-06T01:29:27;10.40;;;6.03;;
32705;SDS011;19094;50.972;3.538;2022-07-06T01:31:52;9.98;;;6.00;;
32705;SDS011;19094;50.972;3.538;2022-07-06T01:34:18;10.20;;;6.15;;
32705;SDS011;19094;50.972;3.538;2022-07-06T01:36:44;11.57;;;5.65;;
32705;SDS011;19094;50.972;3.538;2022-07-06T01:39:11;10.50;;;6.28;;
32705;SDS011;19094;50.972;3.538;2022-07-06T01:41:39;10.02;;;6.75;;
32705;SDS011;19094;50.972;3.538;2022-07-06T01:44:05;9.65;;;6.10;;
32705;SDS011;19094;50.972;3.538;2022-07-06T01:46:31;10.77;;;6.38;;
32705;SDS011;19094;50.972;3.538;2022-07-06T01:48:57;8.38;;;5.57;;
32705;SDS011;19094;50.972;3.538;2022-07-06T01:51:25;10.95;;;5.85;;
32705;SDS011;19094;50.972;3.538;2022-07-06T01:53:51;11.07;;;5.90;;
32705;SDS011;19094;50.972;3.538;2022-07-06T01:56:18;8.57;;;5.68;;
32705;SDS011;19094;50.972;3.538;2022-07-06T01:58:44;13.23;;;6.07;;
32705;SDS011;19094;50.972;3.538;2022-07-06T02:01:12;10.32;;;6.13;;
32705;SDS011;19094;50.972;3.538;2022-07-06T02:03:39;12.95;;;5.95;;
32705;SDS011;19094;50.972;3.538;2022-07-06T02:06:07;10.68;;;6.45;;
32705;SDS011;19094;50.972;3.538;2022-07-06T02:08:34;11.55;;;6.43;;
32705;SDS011;19094;50.972;3.538;2022-07-06T02:11:00;10.48;;;5.60;;
32705;SDS011;19094;50.972;3.538;2022-07-06T02:13:30;10.13;;;6.30;;
32705;SDS011;19094;50.972;3.538;2022-07-06T02:15:57;12.80;;;6.75;;
32705;SDS011;19094;50.972;3.538;2022-07-06T02:18:23;9.32;;;5.80;;
32705;SDS011;19094;50.972;3.538;2022-07-06T02:20:49;10.50;;;5.45;;
32705;SDS011;19094;50.972;3.538;2022-07-06T02:23:14;9.20;;;5.70;;
32705;SDS011;19094;50.972;3.538;2022-07-06T02:25:41;11.95;;;6.05;;
32705;SDS011;19094;50.972;3.538;2022-07-06T02:28:07;11.80;;;6.32;;
32705;SDS011;19094;50.972;3.538;2022-07-06T02:30:32;13.48;;;6.35;;
32705;SDS011;19094;50.972;3.538;2022-07-06T02:32:58;10.55;;;6.63;;
32705;SDS011;19094;50.972;3.538;2022-07-06T02:35:24;14.10;;;5.95;;
32705;SDS011;19094;50.972;3.538;2022-07-06T02:37:50;10.68;;;5.53;;
32705;SDS011;19094;50.972;3.538;2022-07-06T02:40:16;8.93;;;5.93;;
32705;SDS011;19094;50.972;3.538;2022-07-06T02:42:41;8.70;;;6.15;;
32705;SDS011;19094;50.972;3.538;2022-07-06T02:45:07;12.70;;;6.45;;
32705;SDS011;19094;50.972;3.538;2022-07-06T02:47:33;12.93;;;5.90;;
32705;SDS011;19094;50.972;3.538;2022-07-06T02:49:59;7.90;;;6.03;;
32705;SDS011;19094;50.972;3.538;2022-07-06T02:52:25;8.85;;;5.88;;
32705;SDS011;19094;50.972;3.538;2022-07-06T02:54:52;12.95;;;6.43;;
32705;SDS011;19094;50.972;3.538;2022-07-06T02:57:18;8.73;;;5.82;;
32705;SDS011;19094;50.972;3.538;2022-07-06T02:59:44;11.02;;;6.05;;
32705;SDS011;19094;50.972;3.538;2022-07-06T03:02:10;13.30;;;6.20;;
32705;SDS011;19094;50.972;3.538;2022-07-06T03:04:36;10.02;;;5.97;;
32705;SDS011;19094;50.972;3.538;2022-07-06T03:07:02;11.50;;;5.70;;
32705;SDS011;19094;50.972;3.538;2022-07-06T03:09:28;10.32;;;6.38;;
32705;SDS011;19094;50.972;3.538;2022-07-06T03:11:54;9.20;;;5.75;;
32705;SDS011;19094;50.972;3.538;2022-07-06T03:14:20;9.32;;;6.65;;
32705;SDS011;19094;50.972;3.538;2022-07-06T03:16:45;12.45;;;6.32;;
32705;SDS011;19094;50.972;3.538;2022-07-06T03:19:11;13.35;;;6.97;;
32705;SDS011;19094;50.972;3.538;2022-07-06T03:21:37;9.70;;;5.88;;
32705;SDS011;19094;50.972;3.538;2022-07-06T03:24:03;11.98;;;6.63;;
32705;SDS011;19094;50.972;3.538;2022-07-06T03:26:30;10.25;;;5.75;;
32705;SDS011;19094;50.972;3.538;2022-07-06T03:28:55;13.30;;;7.13;;
32705;SDS011;19094;50.972;3.538;2022-07-06T03:31:21;11.60;;;6.35;;
32705;SDS011;19094;50.972;3.538;2022-07-06T03:33:47;10.75;;;6.25;;
32705;SDS011;19094;50.972;3.538;2022-07-06T03:36:12;11.98;;;6.90;;
32705;SDS011;19094;50.972;3.538;2022-07-06T03:38:38;8.82;;;6.18;;
32705;SDS011;19094;50.972;3.538;2022-07-06T03:41:04;14.68;;;6.32;;
32705;SDS011;19094;50.972;3.538;2022-07-06T03:43:29;12.02;;;6.55;;
32705;SDS011;19094;50.972;3.538;2022-07-06T03:45:55;15.53;;;7.43;;
32705;SDS011;19094;50.972;3.538;2022-07-06T03:48:22;14.93;;;7.50;;
32705;SDS011;19094;50.972;3.538;2022-07-06T03:50:47;13.38;;;6.07;;
32705;SDS011;19094;50.972;3.538;2022-07-06T03:53:13;9.25;;;6.65;;
32705;SDS011;19094;50.972;3.538;2022-07-06T03:55:39;11.73;;;6.53;;
32705;SDS011;19094;50.972;3.538;2022-07-06T03:58:04;13.63;;;7.30;;
32705;SDS011;19094;50.972;3.538;2022-07-06T04:00:30;13.25;;;7.35;;
32705;SDS011;19094;50.972;3.538;2022-07-06T04:02:57;10.07;;;6.13;;
32705;SDS011;19094;50.972;3.538;2022-07-06T04:05:22;12.32;;;7.70;;
32705;SDS011;19094;50.972;3.538;2022-07-06T04:07:48;11.98;;;6.57;;
32705;SDS011;19094;50.972;3.538;2022-07-06T04:10:14;16.60;;;7.05;;
32705;SDS011;19094;50.972;3.538;2022-07-06T04:12:44;15.00;;;7.43;;
32705;SDS011;19094;50.972;3.538;2022-07-06T04:15:10;10.18;;;6.93;;
32705;SDS011;19094;50.972;3.538;2022-07-06T04:17:37;11.02;;;6.72;;
32705;SDS011;19094;50.972;3.538;2022-07-06T04:20:19;13.70;;;6.78;;
32705;SDS011;19094;50.972;3.538;2022-07-06T04:22:46;22.65;;;7.43;;
32705;SDS011;19094;50.972;3.538;2022-07-06T04:25:12;18.80;;;7.85;;
32705;SDS011;19094;50.972;3.538;2022-07-06T04:27:38;12.95;;;7.25;;
32705;SDS011;19094;50.972;3.538;2022-07-06T04:30:04;13.50;;;7.38;;
32705;SDS011;19094;50.972;3.538;2022-07-06T04:32:30;13.05;;;7.10;;
32705;SDS011;19094;50.972;3.538;2022-07-06T04:34:56;20.42;;;8.38;;
32705;SDS011;19094;50.972;3.538;2022-07-06T04:37:22;14.93;;;7.53;;
32705;SDS011;19094;50.972;3.538;2022-07-06T04:39:47;15.38;;;7.97;;
32705;SDS011;19094;50.972;3.538;2022-07-06T04:42:13;25.02;;;7.95;;
32705;SDS011;19094;50.972;3.538;2022-07-06T04:44:39;15.43;;;8.50;;
32705;SDS011;19094;50.972;3.538;2022-07-06T04:47:05;16.10;;;8.68;;
32705;SDS011;19094;50.972;3.538;2022-07-06T04:49:31;17.27;;;8.23;;
32705;SDS011;19094;50.972;3.538;2022-07-06T04:51:56;20.25;;;8.00;;
32705;SDS011;19094;50.972;3.538;2022-07-06T04:54:23;24.80;;;9.00;;
32705;SDS011;19094;50.972;3.538;2022-07-06T04:56:49;15.02;;;7.90;;
32705;SDS011;19094;50.972;3.538;2022-07-06T04:59:14;14.98;;;8.40;;
32705;SDS011;19094;50.972;3.538;2022-07-06T05:01:40;15.75;;;8.30;;
32705;SDS011;19094;50.972;3.538;2022-07-06T05:04:06;14.75;;;8.13;;
32705;SDS011;19094;50.972;3.538;2022-07-06T05:06:33;16.30;;;8.68;;
32705;SDS011;19094;50.972;3.538;2022-07-06T05:08:59;15.90;;;9.82;;
32705;SDS011;19094;50.972;3.538;2022-07-06T05:11:27;19.45;;;9.75;;
32705;SDS011;19094;50.972;3.538;2022-07-06T05:13:53;21.00;;;9.05;;
32705;SDS011;19094;50.972;3.538;2022-07-06T05:16:19;19.80;;;9.00;;
32705;SDS011;19094;50.972;3.538;2022-07-06T05:18:45;17.52;;;8.65;;
32705;SDS011;19094;50.972;3.538;2022-07-06T05:21:11;27.05;;;10.50;;
32705;SDS011;19094;50.972;3.538;2022-07-06T05:23:37;20.58;;;8.30;;
32705;SDS011;19094;50.972;3.538;2022-07-06T05:26:03;17.25;;;8.70;;
32705;SDS011;19094;50.972;3.538;2022-07-06T05:28:30;16.25;;;7.60;;
32705;SDS011;19094;50.972;3.538;2022-07-06T05:30:57;16.38;;;8.50;;
32705;SDS011;19094;50.972;3.538;2022-07-06T05:33:24;20.15;;;8.00;;
32705;SDS011;19094;50.972;3.538;2022-07-06T05:35:49;15.63;;;7.47;;
32705;SDS011;19094;50.972;3.538;2022-07-06T05:38:15;14.68;;;9.13;;
32705;SDS011;19094;50.972;3.538;2022-07-06T05:40:41;22.27;;;8.70;;
32705;SDS011;19094;50.972;3.538;2022-07-06T05:43:06;18.23;;;8.10;;
32705;SDS011;19094;50.972;3.538;2022-07-06T05:45:32;14.93;;;7.53;;
32705;SDS011;19094;50.972;3.538;2022-07-06T05:47:58;16.25;;;7.65;;
32705;SDS011;19094;50.972;3.538;2022-07-06T05:50:42;15.25;;;7.97;;
32705;SDS011;19094;50.972;3.538;2022-07-06T05:53:08;18.35;;;7.20;;
32705;SDS011;19094;50.972;3.538;2022-07-06T05:55:33;15.20;;;7.75;;
32705;SDS011;19094;50.972;3.538;2022-07-06T05:58:00;19.13;;;8.23;;
32705;SDS011;19094;50.972;3.538;2022-07-06T06:00:27;13.52;;;8.60;;
32705;SDS011;19094;50.972;3.538;2022-07-06T06:02:53;22.67;;;8.60;;
32705;SDS011;19094;50.972;3.538;2022-07-06T06:05:19;21.80;;;9.27;;
32705;SDS011;19094;50.972;3.538;2022-07-06T06:07:45;18.35;;;8.90;;
32705;SDS011;19094;50.972;3.538;2022-07-06T06:10:13;16.50;;;9.60;;
32705;SDS011;19094;50.972;3.538;2022-07-06T06:12:41;22.98;;;8.30;;
32705;SDS011;19094;50.972;3.538;2022-07-06T06:15:07;23.80;;;8.70;;
32705;SDS011;19094;50.972;3.538;2022-07-06T06:17:34;25.08;;;9.38;;
32705;SDS011;19094;50.972;3.538;2022-07-06T06:20:00;17.65;;;8.95;;
32705;SDS011;19094;50.972;3.538;2022-07-06T06:22:26;23.63;;;10.02;;
32705;SDS011;19094;50.972;3.538;2022-07-06T06:24:52;19.10;;;10.05;;
32705;SDS011;19094;50.972;3.538;2022-07-06T06:27:20;19.98;;;10.23;;
32705;SDS011;19094;50.972;3.538;2022-07-06T06:29:45;22.70;;;9.50;;
32705;SDS011;19094;50.972;3.538;2022-07-06T06:32:12;25.83;;;10.20;;
32705;SDS011;19094;50.972;3.538;2022-07-06T06:34:39;31.20;;;10.32;;
32705;SDS011;19094;50.972;3.538;2022-07-06T06:37:05;21.52;;;8.40;;
32705;SDS011;19094;50.972;3.538;2022-07-06T06:39:31;19.60;;;9.40;;
32705;SDS011;19094;50.972;3.538;2022-07-06T06:41:57;22.70;;;9.75;;
32705;SDS011;19094;50.972;3.538;2022-07-06T06:44:23;21.10;;;9.05;;
32705;SDS011;19094;50.972;3.538;2022-07-06T06:46:51;22.48;;;9.20;;
32705;SDS011;19094;50.972;3.538;2022-07-06T06:49:17;20.90;;;8.50;;
32705;SDS011;19094;50.972;3.538;2022-07-06T06:51:44;20.10;;;7.80;;
32705;SDS011;19094;50.972;3.538;2022-07-06T06:54:10;24.52;;;9.02;;
32705;SDS011;19094;50.972;3.538;2022-07-06T06:56:36;22.60;;;8.02;;
32705;SDS011;19094;50.972;3.538;2022-07-06T06:59:02;22.45;;;8.32;;
32705;SDS011;19094;50.972;3.538;2022-07-06T07:01:28;17.60;;;7.20;;
32705;SDS011;19094;50.972;3.538;2022-07-06T07:03:54;21.52;;;8.55;;
32705;SDS011;19094;50.972;3.538;2022-07-06T07:06:21;17.02;;;7.32;;
32705;SDS011;19094;50.972;3.538;2022-07-06T07:08:47;20.05;;;8.07;;
32705;SDS011;19094;50.972;3.538;2022-07-06T07:11:13;21.15;;;8.10;;
32705;SDS011;19094;50.972;3.538;2022-07-06T07:13:38;19.98;;;7.97;;
32705;SDS011;19094;50.972;3.538;2022-07-06T07:16:04;22.38;;;7.43;;
32705;SDS011;19094;50.972;3.538;2022-07-06T07:18:30;21.30;;;7.40;;
32705;SDS011;19094;50.972;3.538;2022-07-06T07:20:56;18.02;;;7.20;;
32705;SDS011;19094;50.972;3.538;2022-07-06T07:23:22;17.70;;;7.28;;
32705;SDS011;19094;50.972;3.538;2022-07-06T07:25:47;20.73;;;7.25;;
32705;SDS011;19094;50.972;3.538;2022-07-06T07:28:13;15.13;;;6.28;;
32705;SDS011;19094;50.972;3.538;2022-07-06T07:30:39;12.57;;;6.38;;
32705;SDS011;19094;50.972;3.538;2022-07-06T07:33:05;11.52;;;6.47;;
32705;SDS011;19094;50.972;3.538;2022-07-06T07:35:32;11.35;;;4.47;;
32705;SDS011;19094;50.972;3.538;2022-07-06T07:37:59;9.85;;;4.32;;
32705;SDS011;19094;50.972;3.538;2022-07-06T07:40:26;14.55;;;4.10;;
32705;SDS011;19094;50.972;3.538;2022-07-06T07:42:52;11.05;;;3.17;;
32705;SDS011;19094;50.972;3.538;2022-07-06T07:45:18;15.10;;;4.25;;
32705;SDS011;19094;50.972;3.538;2022-07-06T07:47:43;8.95;;;3.65;;
32705;SDS011;19094;50.972;3.538;2022-07-06T07:50:09;9.27;;;4.03;;
32705;SDS011;19094;50.972;3.538;2022-07-06T07:52:35;9.55;;;3.60;;
32705;SDS011;19094;50.972;3.538;2022-07-06T07:55:01;15.77;;;5.22;;
32705;SDS011;19094;50.972;3.538;2022-07-06T07:57:27;14.93;;;5.13;;
32705;SDS011;19094;50.972;3.538;2022-07-06T07:59:53;8.05;;;4.32;;
32705;SDS011;19094;50.972;3.538;2022-07-06T08:02:19;8.77;;;4.38;;
32705;SDS011;19094;50.972;3.538;2022-07-06T08:04:45;10.25;;;4.35;;
32705;SDS011;19094;50.972;3.538;2022-07-06T08:07:10;12.70;;;4.30;;
32705;SDS011;19094;50.972;3.538;2022-07-06T08:09:36;10.45;;;4.20;;
32705;SDS011;19094;50.972;3.538;2022-07-06T08:12:02;16.08;;;4.30;;
32705;SDS011;19094;50.972;3.538;2022-07-06T08:14:28;10.73;;;4.30;;
32705;SDS011;19094;50.972;3.538;2022-07-06T08:16:54;17.27;;;4.97;;
32705;SDS011;19094;50.972;3.538;2022-07-06T08:19:19;13.63;;;5.50;;
32705;SDS011;19094;50.972;3.538;2022-07-06T08:21:45;13.10;;;6.40;;
32705;SDS011;19094;50.972;3.538;2022-07-06T08:24:11;19.30;;;6.20;;
32705;SDS011;19094;50.972;3.538;2022-07-06T08:26:37;20.52;;;7.30;;
32705;SDS011;19094;50.972;3.538;2022-07-06T08:29:03;15.65;;;5.47;;
32705;SDS011;19094;50.972;3.538;2022-07-06T08:31:29;13.60;;;6.63;;
32705;SDS011;19094;50.972;3.538;2022-07-06T08:33:55;18.77;;;6.45;;
32705;SDS011;19094;50.972;3.538;2022-07-06T08:36:21;14.40;;;4.80;;
32705;SDS011;19094;50.972;3.538;2022-07-06T08:38:48;17.42;;;6.25;;
32705;SDS011;19094;50.972;3.538;2022-07-06T08:41:18;25.08;;;7.22;;
32705;SDS011;19094;50.972;3.538;2022-07-06T08:43:46;14.00;;;6.00;;
32705;SDS011;19094;50.972;3.538;2022-07-06T08:46:13;18.08;;;6.22;;
32705;SDS011;19094;50.972;3.538;2022-07-06T08:48:39;11.32;;;5.90;;
32705;SDS011;19094;50.972;3.538;2022-07-06T08:51:06;13.38;;;6.05;;
32705;SDS011;19094;50.972;3.538;2022-07-06T08:53:35;17.20;;;6.07;;
32705;SDS011;19094;50.972;3.538;2022-07-06T08:56:01;12.30;;;5.28;;
32705;SDS011;19094;50.972;3.538;2022-07-06T08:58:27;12.82;;;6.57;;
32705;SDS011;19094;50.972;3.538;2022-07-06T09:00:54;16.58;;;6.50;;
32705;SDS011;19094;50.972;3.538;2022-07-06T09:03:20;8.82;;;5.70;;
32705;SDS011;19094;50.972;3.538;2022-07-06T09:05:48;13.32;;;6.13;;
32705;SDS011;19094;50.972;3.538;2022-07-06T09:08:15;16.98;;;6.38;;
32705;SDS011;19094;50.972;3.538;2022-07-06T09:10:40;13.18;;;6.55;;
32705;SDS011;19094;50.972;3.538;2022-07-06T09:13:07;14.52;;;5.78;;
32705;SDS011;19094;50.972;3.538;2022-07-06T09:15:34;16.25;;;6.65;;
32705;SDS011;19094;50.972;3.538;2022-07-06T09:18:03;9.70;;;5.40;;
32705;SDS011;19094;50.972;3.538;2022-07-06T09:20:30;13.25;;;6.50;;
32705;SDS011;19094;50.972;3.538;2022-07-06T09:22:59;15.43;;;6.20;;
32705;SDS011;19094;50.972;3.538;2022-07-06T09:25:27;22.50;;;6.68;;
32705;SDS011;19094;50.972;3.538;2022-07-06T09:27:53;15.00;;;6.72;;
32705;SDS011;19094;50.972;3.538;2022-07-06T09:30:21;22.60;;;6.72;;
32705;SDS011;19094;50.972;3.538;2022-07-06T09:32:49;16.77;;;6.22;;
32705;SDS011;19094;50.972;3.538;2022-07-06T09:35:20;12.38;;;6.47;;
32705;SDS011;19094;50.972;3.538;2022-07-06T09:37:59;13.85;;;5.93;;
32705;SDS011;19094;50.972;3.538;2022-07-06T09:40:34;13.65;;;5.13;;
32705;SDS011;19094;50.972;3.538;2022-07-06T09:43:12;14.60;;;6.03;;
32705;SDS011;19094;50.972;3.538;2022-07-06T09:45:40;12.05;;;6.03;;
32705;SDS011;19094;50.972;3.538;2022-07-06T09:48:08;12.05;;;5.93;;
32705;SDS011;19094;50.972;3.538;2022-07-06T09:50:42;12.02;;;5.20;;
32705;SDS011;19094;50.972;3.538;2022-07-06T09:53:09;12.32;;;5.82;;
32705;SDS011;19094;50.972;3.538;2022-07-06T09:55:35;11.13;;;5.40;;
32705;SDS011;19094;50.972;3.538;2022-07-06T09:58:02;13.05;;;5.10;;
32705;SDS011;19094;50.972;3.538;2022-07-06T10:00:28;14.90;;;5.57;;
32705;SDS011;19094;50.972;3.538;2022-07-06T10:02:54;12.43;;;5.57;;
32705;SDS011;19094;50.972;3.538;2022-07-06T10:05:22;21.45;;;5.80;;
32705;SDS011;19094;50.972;3.538;2022-07-06T10:07:55;13.60;;;6.28;;
32705;SDS011;19094;50.972;3.538;2022-07-06T10:10:28;16.33;;;5.97;;
32705;SDS011;19094;50.972;3.538;2022-07-06T10:12:57;15.65;;;5.97;;
32705;SDS011;19094;50.972;3.538;2022-07-06T10:15:25;11.05;;;5.55;;
32705;SDS011;19094;50.972;3.538;2022-07-06T10:17:52;16.92;;;5.82;;
32705;SDS011;19094;50.972;3.538;2022-07-06T10:20:19;11.32;;;4.70;;
32705;SDS011;19094;50.972;3.538;2022-07-06T10:22:47;14.38;;;5.65;;
32705;SDS011;19094;50.972;3.538;2022-07-06T10:25:16;14.48;;;4.95;;
32705;SDS011;19094;50.972;3.538;2022-07-06T10:27:44;16.00;;;6.15;;
32705;SDS011;19094;50.972;3.538;2022-07-06T10:30:11;19.08;;;5.93;;
32705;SDS011;19094;50.972;3.538;2022-07-06T10:32:38;10.13;;;4.60;;
32705;SDS011;19094;50.972;3.538;2022-07-06T10:35:05;18.02;;;6.03;;
32705;SDS011;19094;50.972;3.538;2022-07-06T10:37:31;11.85;;;5.40;;
32705;SDS011;19094;50.972;3.538;2022-07-06T10:39:58;19.95;;;6.22;;
32705;SDS011;19094;50.972;3.538;2022-07-06T10:45:13;13.88;;;5.93;;
32705;SDS011;19094;50.972;3.538;2022-07-06T10:47:40;15.98;;;5.97;;
32705;SDS011;19094;50.972;3.538;2022-07-06T10:50:07;21.23;;;5.13;;
32705;SDS011;19094;50.972;3.538;2022-07-06T10:52:47;13.00;;;5.25;;
32705;SDS011;19094;50.972;3.538;2022-07-06T10:55:27;12.93;;;4.70;;
32705;SDS011;19094;50.972;3.538;2022-07-06T10:57:56;18.17;;;5.18;;
32705;SDS011;19094;50.972;3.538;2022-07-06T11:00:22;13.77;;;4.50;;
32705;SDS011;19094;50.972;3.538;2022-07-06T11:02:48;13.65;;;5.70;;
32705;SDS011;19094;50.972;3.538;2022-07-06T11:08:08;13.68;;;5.15;;
32705;SDS011;19094;50.972;3.538;2022-07-06T11:10:47;7.93;;;4.75;;
32705;SDS011;19094;50.972;3.538;2022-07-06T11:13:26;11.70;;;5.15;;
32705;SDS011;19094;50.972;3.538;2022-07-06T11:15:59;16.30;;;4.72;;
32705;SDS011;19094;50.972;3.538;2022-07-06T11:18:27;11.27;;;4.82;;
32705;SDS011;19094;50.972;3.538;2022-07-06T11:23:41;13.73;;;5.03;;
32705;SDS011;19094;50.972;3.538;2022-07-06T11:26:11;15.15;;;4.60;;
32705;SDS011;19094;50.972;3.538;2022-07-06T11:28:38;10.38;;;4.32;;
32705;SDS011;19094;50.972;3.538;2022-07-06T11:31:03;14.25;;;5.10;;
32705;SDS011;19094;50.972;3.538;2022-07-06T11:33:29;7.03;;;3.28;;
32705;SDS011;19094;50.972;3.538;2022-07-06T11:36:15;8.00;;;3.58;;
32705;SDS011;19094;50.972;3.538;2022-07-06T11:38:41;7.30;;;3.33;;
32705;SDS011;19094;50.972;3.538;2022-07-06T11:41:07;10.55;;;3.15;;
32705;SDS011;19094;50.972;3.538;2022-07-06T11:43:33;8.95;;;4.07;;
32705;SDS011;19094;50.972;3.538;2022-07-06T11:45:59;13.30;;;3.22;;
32705;SDS011;19094;50.972;3.538;2022-07-06T11:48:27;21.42;;;3.78;;
32705;SDS011;19094;50.972;3.538;2022-07-06T11:50:59;7.28;;;3.85;;
32705;SDS011;19094;50.972;3.538;2022-07-06T11:53:28;11.70;;;4.38;;
32705;SDS011;19094;50.972;3.538;2022-07-06T11:55:54;13.43;;;5.05;;
32705;SDS011;19094;50.972;3.538;2022-07-06T11:58:22;8.23;;;3.83;;
32705;SDS011;19094;50.972;3.538;2022-07-06T12:01:07;8.45;;;4.07;;
32705;SDS011;19094;50.972;3.538;2022-07-06T12:03:34;10.07;;;4.10;;
32705;SDS011;19094;50.972;3.538;2022-07-06T12:06:04;11.85;;;4.90;;
32705;SDS011;19094;50.972;3.538;2022-07-06T12:08:30;14.57;;;4.53;;
32705;SDS011;19094;50.972;3.538;2022-07-06T12:10:59;11.77;;;4.70;;
32705;SDS011;19094;50.972;3.538;2022-07-06T12:13:25;10.45;;;4.55;;
32705;SDS011;19094;50.972;3.538;2022-07-06T12:15:52;8.98;;;4.55;;
32705;SDS011;19094;50.972;3.538;2022-07-06T12:18:18;9.93;;;4.72;;
32705;SDS011;19094;50.972;3.538;2022-07-06T12:20:44;18.98;;;4.97;;
32705;SDS011;19094;50.972;3.538;2022-07-06T12:23:10;8.95;;;5.00;;
32705;SDS011;19094;50.972;3.538;2022-07-06T12:25:36;13.05;;;5.95;;
32705;SDS011;19094;50.972;3.538;2022-07-06T12:28:03;12.45;;;6.95;;
32705;SDS011;19094;50.972;3.538;2022-07-06T12:30:29;17.75;;;7.32;;
32705;SDS011;19094;50.972;3.538;2022-07-06T12:33:12;16.23;;;5.90;;
32705;SDS011;19094;50.972;3.538;2022-07-06T12:35:41;9.10;;;5.13;;
32705;SDS011;19094;50.972;3.538;2022-07-06T12:38:08;13.90;;;6.70;;
32705;SDS011;19094;50.972;3.538;2022-07-06T12:40:35;13.40;;;6.78;;
32705;SDS011;19094;50.972;3.538;2022-07-06T12:43:03;10.35;;;7.00;;
32705;SDS011;19094;50.972;3.538;2022-07-06T12:45:30;14.95;;;7.28;;
32705;SDS011;19094;50.972;3.538;2022-07-06T12:48:01;12.80;;;7.43;;
32705;SDS011;19094;50.972;3.538;2022-07-06T12:50:35;10.70;;;6.13;;
32705;SDS011;19094;50.972;3.538;2022-07-06T12:55:29;14.13;;;6.38;;
32705;SDS011;19094;50.972;3.538;2022-07-06T12:57:55;11.50;;;6.53;;
32705;SDS011;19094;50.972;3.538;2022-07-06T13:00:22;12.93;;;7.55;;
32705;SDS011;19094;50.972;3.538;2022-07-06T13:02:50;13.57;;;7.05;;
32705;SDS011;19094;50.972;3.538;2022-07-06T13:05:24;13.18;;;6.35;;
32705;SDS011;19094;50.972;3.538;2022-07-06T13:07:53;10.90;;;6.78;;
32705;SDS011;19094;50.972;3.538;2022-07-06T13:10:20;16.80;;;6.43;;
32705;SDS011;19094;50.972;3.538;2022-07-06T13:12:47;12.00;;;6.13;;
32705;SDS011;19094;50.972;3.538;2022-07-06T13:15:14;12.85;;;6.80;;
32705;SDS011;19094;50.972;3.538;2022-07-06T13:17:40;13.40;;;6.13;;
32705;SDS011;19094;50.972;3.538;2022-07-06T13:20:06;12.18;;;6.75;;
32705;SDS011;19094;50.972;3.538;2022-07-06T13:22:34;14.77;;;6.32;;
32705;SDS011;19094;50.972;3.538;2022-07-06T13:25:00;13.30;;;6.82;;
32705;SDS011;19094;50.972;3.538;2022-07-06T13:27:26;14.63;;;6.72;;
32705;SDS011;19094;50.972;3.538;2022-07-06T13:29:51;15.20;;;7.50;;
32705;SDS011;19094;50.972;3.538;2022-07-06T13:32:17;11.38;;;5.68;;
32705;SDS011;19094;50.972;3.538;2022-07-06T13:34:43;9.52;;;5.00;;
32705;SDS011;19094;50.972;3.538;2022-07-06T13:37:09;13.82;;;4.80;;
32705;SDS011;19094;50.972;3.538;2022-07-06T13:39:35;7.93;;;4.75;;
32705;SDS011;19094;50.972;3.538;2022-07-06T13:42:00;12.35;;;4.78;;
32705;SDS011;19094;50.972;3.538;2022-07-06T13:44:26;16.08;;;5.22;;
32705;SDS011;19094;50.972;3.538;2022-07-06T13:46:52;9.65;;;5.70;;
32705;SDS011;19094;50.972;3.538;2022-07-06T13:49:18;10.98;;;5.32;;
32705;SDS011;19094;50.972;3.538;2022-07-06T13:51:44;9.60;;;5.30;;
32705;SDS011;19094;50.972;3.538;2022-07-06T13:54:09;15.77;;;5.45;;
32705;SDS011;19094;50.972;3.538;2022-07-06T13:56:39;14.27;;;5.72;;
32705;SDS011;19094;50.972;3.538;2022-07-06T13:59:05;9.00;;;6.47;;
32705;SDS011;19094;50.972;3.538;2022-07-06T14:01:31;10.93;;;6.57;;
32705;SDS011;19094;50.972;3.538;2022-07-06T14:03:57;20.50;;;8.38;;
32705;SDS011;19094;50.972;3.538;2022-07-06T14:06:23;8.73;;;5.78;;
32705;SDS011;19094;50.972;3.538;2022-07-06T14:08:48;13.35;;;7.93;;
32705;SDS011;19094;50.972;3.538;2022-07-06T14:11:14;10.23;;;6.20;;
32705;SDS011;19094;50.972;3.538;2022-07-06T14:13:40;11.98;;;7.25;;
32705;SDS011;19094;50.972;3.538;2022-07-06T14:16:08;10.95;;;7.20;;
32705;SDS011;19094;50.972;3.538;2022-07-06T14:18:34;10.60;;;5.90;;
32705;SDS011;19094;50.972;3.538;2022-07-06T14:21:00;13.13;;;5.55;;
32705;SDS011;19094;50.972;3.538;2022-07-06T14:23:26;12.23;;;6.10;;
32705;SDS011;19094;50.972;3.538;2022-07-06T14:25:55;11.88;;;5.53;;
32705;SDS011;19094;50.972;3.538;2022-07-06T14:28:21;12.65;;;6.43;;
32705;SDS011;19094;50.972;3.538;2022-07-06T14:30:47;11.95;;;5.72;;
32705;SDS011;19094;50.972;3.538;2022-07-06T14:33:13;14.82;;;6.15;;
32705;SDS011;19094;50.972;3.538;2022-07-06T14:35:40;12.25;;;6.78;;
32705;SDS011;19094;50.972;3.538;2022-07-06T14:38:08;13.27;;;6.20;;
32705;SDS011;19094;50.972;3.538;2022-07-06T14:40:34;15.32;;;5.38;;
32705;SDS011;19094;50.972;3.538;2022-07-06T14:43:01;10.82;;;4.65;;
32705;SDS011;19094;50.972;3.538;2022-07-06T14:45:27;11.27;;;3.55;;